WetterOnline ( http://www.wetteronline.de )

Wetter aktuell Lübeck

Aktuelles Wetter: Lübeck/Blankensee (15m)

6-stündlich | Neueste Meldungen
Ortszeit Temperatur Wetter
Di, 24.04. 2:00 8.1° C bedeckt
Mo, 23.04. 20:00 12.5° C wolkig
Mo, 23.04. 14:00 16.6° C leicht bewölkt
Mo, 23.04. 8:00 15.3° C leicht bewölkt
Mo, 23.04. 2:00 14.0° C bewölkt
So, 22.04. 20:00 14.9° C fast wolkenlos
So, 22.04. 14:00 17.8° C wolkenlos
So, 22.04. 8:00 7.4° C leicht bewölkt
Ortszeit Temperatur Wetter
Di, 24.04. 6:00 9.1° C bewölkt
Di, 24.04. 5:50 9.1° C bewölkt
Di, 24.04. 5:40 9.1° C bewölkt
Di, 24.04. 5:30 9.0° C bewölkt
Di, 24.04. 5:20 9.0° C bewölkt
Di, 24.04. 5:10 8.9° C bedeckt
Di, 24.04. 5:00 8.8° C bewölkt
Di, 24.04. 4:30 8.7° C bewölkt
Di, 24.04. 4:00 8.4° C bewölkt
Di, 24.04. 3:30 8.6° C bedeckt
Di, 24.04. 3:00 8.5° C bedeckt
Ortszeit Relative Feuchte Sichtweite
Di, 24.04. 2:00 83% 23 km
Mo, 23.04. 20:00 63% 45 km
Mo, 23.04. 14:00 57% 23 km
Mo, 23.04. 8:00 78% 13 km
Mo, 23.04. 2:00 79% 18 km
So, 22.04. 20:00 65% 27 km
So, 22.04. 14:00 39% 40 km
So, 22.04. 8:00 80% 14 km
Ortszeit Relative Feuchte Sichtweite
Di, 24.04. 6:00 83% 15 km
Di, 24.04. 5:50 83% -
Di, 24.04. 5:40 83% -
Di, 24.04. 5:30 83% 15 km
Di, 24.04. 5:20 83% -
Di, 24.04. 5:10 85% -
Di, 24.04. 5:00 85% 15 km
Di, 24.04. 4:30 84% 16 km
Di, 24.04. 4:00 84% 17 km
Di, 24.04. 3:30 80% 21 km
Di, 24.04. 3:00 80% 25 km
Ortszeit Niederschlagsmenge Niederschlagsart
Di, 24.04. 2:00 0.0 l/m2 in 6 Std. -
Mo, 23.04. 20:00 0.1 l/m2 in 12 Std. -
Mo, 23.04. 14:00 0.1 l/m2 in 6 Std. Regen
Mo, 23.04. 8:00 0.0 l/m2 in 12 Std. -
Mo, 23.04. 2:00 0.0 l/m2 in 6 Std. -
So, 22.04. 20:00 0.0 l/m2 in 12 Std. -
So, 22.04. 14:00 0.0 l/m2 in 6 Std. -
So, 22.04. 8:00 0.0 l/m2 in 12 Std. -
Ortszeit Niederschlagsmenge Niederschlagsart
Di, 24.04. 6:00 0.0 l/m2 in 1 Std. -
Di, 24.04. 5:50 keine Meldung -
Di, 24.04. 5:40 keine Meldung -
Di, 24.04. 5:30 0.0 l/m2 in 1 Std. -
Di, 24.04. 5:20 keine Meldung -
Di, 24.04. 5:10 keine Meldung -
Di, 24.04. 5:00 0.0 l/m2 in 1 Std. -
Di, 24.04. 4:30 0.0 l/m2 in 1 Std. -
Di, 24.04. 4:00 0.0 l/m2 in 1 Std. -
Di, 24.04. 3:30 0.0 l/m2 in 1 Std. -
Di, 24.04. 3:00 0.0 l/m2 in 1 Std. -
Ortszeit Stärke Spitze Richtung
km/h Bft. km/h Grad Sektor
Di, 24.04. 2:00 4 1 40 230° SW
Mo, 23.04. 20:00 17 3 46 270° W
Mo, 23.04. 14:00 25 4 43 270° W
Mo, 23.04. 8:00 11 2 29 240° SW
Mo, 23.04. 2:00 4 1 18 220° SW
So, 22.04. 20:00 14 3 25 60° NO
So, 22.04. 14:00 9 2 20 130° SO
So, 22.04. 8:00 0 0 4 - -
Ortszeit Stärke Spitze Richtung
km/h Bft. km/h Grad Sektor
Di, 24.04. 6:00 9 2 22 200° S
Di, 24.04. 5:50 9 2 - 200° S
Di, 24.04. 5:40 9 2 - 200° S
Di, 24.04. 5:30 9 2 19 190° S
Di, 24.04. 5:20 9 2 - 190° S
Di, 24.04. 5:10 7 2 - 190° S
Di, 24.04. 5:00 7 2 22 210° SW
Di, 24.04. 4:30 11 2 22 190° S
Di, 24.04. 4:00 9 2 20 190° S
Di, 24.04. 3:30 9 2 17 190° S
Di, 24.04. 3:00 9 2 15 180° S
Ortszeit Untergrenze Bedeckung Gattung
total tief tief mittel hoch
Di, 24.04. 2:00 1230 m 8/8 8/8 - - -
Mo, 23.04. 20:00 1140 m 6/8 6/8 - - -
Mo, 23.04. 14:00 870 m 3/8 3/8 - - -
Mo, 23.04. 8:00 4200 m 3/8 1/8 - - -
Mo, 23.04. 2:00 2700 m 8/8 7/8 - - -
So, 22.04. 20:00 3300 m 1/8 1/8 - - -
So, 22.04. 14:00 - 0/8 0/8 - - -
So, 22.04. 8:00 10500 m 7/8 0/8 - - -
Ortszeit Bedeckungsgrad in Achtel und Wolkenuntergrenze
Di, 24.04. 6:00 7(1320m) 8(3600m) 8(6600m)
Di, 24.04. 5:50 7(1320m) 8(3600m) 8(6600m)
Di, 24.04. 5:40 7(1380m) 8(3000m) 8(3900m)
Di, 24.04. 5:30 7(1350m) 8(3000m) 8(4800m)
Di, 24.04. 5:20 7(1350m) 8(3000m) 8(4800m)
Di, 24.04. 5:10 8(1320m) 8(3300m)
Di, 24.04. 5:00 7(1290m) 8(4200m) 8(4800m)
Di, 24.04. 4:30 5(1260m) 7(3900m) 8(7200m)
Di, 24.04. 4:00 6(1260m) 7(3000m) 8(8700m)
Di, 24.04. 3:30 8(1260m) 8(3300m) 8(8700m)
Di, 24.04. 3:00 8(1230m)
Ortszeit Luftdruck NN (hPa) Tendenz (hPa in 3 Std.)
Di, 24.04. 2:00 1014 - 0,3
Mo, 23.04. 20:00 1014 + 1,3
Mo, 23.04. 14:00 1012 + 1,2
Mo, 23.04. 8:00 1008 0,0
Mo, 23.04. 2:00 1009 - 0,1
So, 22.04. 20:00 1011 - 1,5
So, 22.04. 14:00 1015 - 2,1
So, 22.04. 8:00 1018 - 0,7
Ortszeit Luftdruck NN (hPa) Tendenz (hPa in 3 Std.)
Di, 24.04. 6:00 1012 - 1,3
Di, 24.04. 5:50 1012 keine Meldung
Di, 24.04. 5:40 1012 keine Meldung
Di, 24.04. 5:30 1012 - 1,6
Di, 24.04. 5:20 1012 keine Meldung
Di, 24.04. 5:10 1013 keine Meldung
Di, 24.04. 5:00 1013 - 1,3
Di, 24.04. 4:30 1013 - 1,7
Di, 24.04. 4:00 1013 - 1,4
Di, 24.04. 3:30 1013 - 1,3
Di, 24.04. 3:00 1013 - 1,1
Ortszeit Schneehöhe (cm)
Di, 24.04. 2:00 0
Mo, 23.04. 20:00 0
Mo, 23.04. 14:00 0
Mo, 23.04. 8:00 0
Mo, 23.04. 2:00 0
So, 22.04. 20:00 0
So, 22.04. 14:00 0
So, 22.04. 8:00 0
Ortszeit Schneehöhe (cm)
Di, 24.04. 6:00 0
Di, 24.04. 5:50 0
Di, 24.04. 5:40 0
Di, 24.04. 5:30 0
Di, 24.04. 5:20 0
Di, 24.04. 5:10 0
Di, 24.04. 5:00 0
Di, 24.04. 4:30 0
Di, 24.04. 4:00 0
Di, 24.04. 3:30 0
Di, 24.04. 3:00 0
Link zu dieser Seite / Seite empfehlen

Das Wetter in ...